createdAt,value
2018-12-27T00:00:15.686Z,6.50
2018-12-27T00:02:44.052Z,6.60
2018-12-27T00:05:12.331Z,6.60
2018-12-27T00:07:40.956Z,6.60
2018-12-27T00:10:09.301Z,6.60
2018-12-27T00:12:37.895Z,6.70
2018-12-27T00:15:08.974Z,6.70
2018-12-27T00:17:37.230Z,6.70
2018-12-27T00:20:05.511Z,6.60
2018-12-27T00:22:33.922Z,6.70
2018-12-27T00:25:04.295Z,6.60
2018-12-27T00:27:32.582Z,6.60
2018-12-27T00:30:04.033Z,6.60
2018-12-27T00:32:33.517Z,6.60
2018-12-27T00:35:03.928Z,6.50
2018-12-27T00:37:32.629Z,6.50
2018-12-27T00:40:01.240Z,6.50
2018-12-27T00:42:29.841Z,6.50
2018-12-27T00:44:58.547Z,6.50
2018-12-27T00:47:27.150Z,6.50
2018-12-27T00:49:55.757Z,6.50
2018-12-27T00:52:24.410Z,6.50
2018-12-27T00:54:53.030Z,6.50
2018-12-27T00:57:21.657Z,6.50
2018-12-27T00:59:50.295Z,6.50
2018-12-27T01:02:18.878Z,6.50
2018-12-27T01:04:47.496Z,6.50
2018-12-27T01:07:19.110Z,6.50
2018-12-27T01:09:47.702Z,6.50
2018-12-27T01:12:16.380Z,6.50
2018-12-27T01:14:44.991Z,6.50
2018-12-27T01:17:13.590Z,6.50
2018-12-27T01:19:43.190Z,6.50
2018-12-27T01:22:11.820Z,6.50
2018-12-27T01:24:40.493Z,6.50
2018-12-27T01:27:09.130Z,6.50
2018-12-27T01:29:37.767Z,6.50
2018-12-27T01:32:06.473Z,6.50
2018-12-27T01:34:35.046Z,6.50
2018-12-27T01:37:03.804Z,6.50
2018-12-27T01:39:32.386Z,6.50
2018-12-27T01:42:01.122Z,6.50
2018-12-27T01:44:29.732Z,6.50
2018-12-27T01:46:58.361Z,6.50
2018-12-27T01:49:26.970Z,6.50
2018-12-27T01:51:55.579Z,6.40
2018-12-27T01:54:24.189Z,6.50
2018-12-27T01:56:52.806Z,6.40
2018-12-27T01:59:21.411Z,6.40
2018-12-27T02:01:50.028Z,6.40
2018-12-27T02:04:18.630Z,6.40
2018-12-27T02:06:47.249Z,6.40
2018-12-27T02:09:17.877Z,6.30
2018-12-27T02:11:46.511Z,6.30
2018-12-27T02:14:15.113Z,6.30
2018-12-27T02:16:43.823Z,6.40
2018-12-27T02:19:12.429Z,6.40
2018-12-27T02:21:41.067Z,6.40
2018-12-27T02:24:09.668Z,6.30
2018-12-27T02:26:38.439Z,6.30
2018-12-27T02:29:07.044Z,6.40
2018-12-27T02:31:37.131Z,6.40
2018-12-27T02:34:07.235Z,6.40
2018-12-27T02:36:35.826Z,6.40
2018-12-27T02:39:05.571Z,6.30
2018-12-27T02:41:34.183Z,6.30
2018-12-27T02:44:02.953Z,6.30
2018-12-27T02:46:31.614Z,6.30
2018-12-27T02:49:00.304Z,6.30
2018-12-27T02:51:29.015Z,6.30
2018-12-27T02:53:57.648Z,6.30
2018-12-27T02:56:26.239Z,6.30
2018-12-27T02:58:54.933Z,6.30
2018-12-27T03:01:23.535Z,6.30
2018-12-27T03:03:53.190Z,6.30
2018-12-27T03:06:23.863Z,6.20
2018-12-27T03:08:52.659Z,6.20
2018-12-27T03:11:21.248Z,6.10
2018-12-27T03:13:49.930Z,6.10
2018-12-27T03:16:18.547Z,6.10
2018-12-27T03:18:47.168Z,6.00
2018-12-27T03:21:15.769Z,6.00
2018-12-27T03:23:44.475Z,6.00
2018-12-27T03:26:13.087Z,6.00
2018-12-27T03:28:41.779Z,6.00
2018-12-27T03:31:10.392Z,6.00
2018-12-27T03:33:39.080Z,6.00
2018-12-27T03:36:09.502Z,5.90
2018-12-27T03:38:38.128Z,5.90
2018-12-27T03:41:06.735Z,5.90
2018-12-27T03:43:35.336Z,6.00
2018-12-27T03:46:03.964Z,5.90
2018-12-27T03:48:32.717Z,6.00
2018-12-27T03:51:01.392Z,5.90
2018-12-27T03:53:29.991Z,5.90
2018-12-27T03:55:58.621Z,5.90
2018-12-27T03:58:27.221Z,5.90
2018-12-27T04:00:55.900Z,5.90
2018-12-27T04:03:24.725Z,5.90
2018-12-27T04:05:53.335Z,5.90
2018-12-27T04:08:21.915Z,5.90
2018-12-27T04:10:50.528Z,5.90
2018-12-27T04:13:20.219Z,5.90
2018-12-27T04:15:50.135Z,5.90
2018-12-27T04:18:18.581Z,5.90
2018-12-27T04:20:46.868Z,5.90
2018-12-27T04:23:15.224Z,5.90
2018-12-27T04:25:45.854Z,5.90
2018-12-27T04:28:14.235Z,5.80
2018-12-27T04:30:42.535Z,5.80
2018-12-27T04:33:13.005Z,5.80
2018-12-27T04:35:41.267Z,5.80
2018-12-27T04:38:09.611Z,5.70
2018-12-27T04:40:37.875Z,5.70
2018-12-27T04:43:06.146Z,5.70
2018-12-27T04:45:34.421Z,5.70
2018-12-27T04:48:02.699Z,5.70
2018-12-27T04:50:31.075Z,5.70
2018-12-27T04:52:59.404Z,5.70
2018-12-27T04:55:27.713Z,5.70
2018-12-27T04:57:55.993Z,5.70
2018-12-27T05:00:24.298Z,5.60
2018-12-27T05:02:52.596Z,5.70
2018-12-27T05:05:20.994Z,5.70
2018-12-27T05:07:49.277Z,5.70
2018-12-27T05:10:17.659Z,5.70
2018-12-27T05:12:45.930Z,5.70
2018-12-27T05:15:15.302Z,5.70
2018-12-27T05:17:43.579Z,5.70
2018-12-27T05:20:11.891Z,5.70
2018-12-27T05:22:40.177Z,5.70
2018-12-27T05:25:08.493Z,5.70
2018-12-27T05:27:36.762Z,5.70
2018-12-27T05:30:05.506Z,5.60
2018-12-27T05:32:33.781Z,5.60
2018-12-27T05:35:02.074Z,5.60
2018-12-27T05:37:30.393Z,5.60
2018-12-27T05:39:58.782Z,5.60
2018-12-27T05:42:27.042Z,5.60
2018-12-27T05:44:55.354Z,5.50
2018-12-27T05:47:23.637Z,5.60
2018-12-27T05:49:51.974Z,5.60
2018-12-27T05:52:20.238Z,5.60
2018-12-27T05:54:48.520Z,5.50
2018-12-27T05:57:16.770Z,5.50
2018-12-27T05:59:45.363Z,5.50
2018-12-27T06:02:13.641Z,5.50
2018-12-27T06:04:41.936Z,5.50
2018-12-27T06:07:10.193Z,5.40
2018-12-27T06:09:40.518Z,5.40
2018-12-27T06:12:08.783Z,5.40
2018-12-27T06:14:37.130Z,5.40
2018-12-27T06:17:05.385Z,5.40
2018-12-27T06:19:33.703Z,5.40
2018-12-27T06:22:01.990Z,5.40
2018-12-27T06:24:30.398Z,5.40
2018-12-27T06:26:58.650Z,5.40
2018-12-27T06:29:27.002Z,5.40
2018-12-27T06:31:55.268Z,5.40
2018-12-27T06:34:23.604Z,5.40
2018-12-27T06:36:51.894Z,5.40
2018-12-27T06:39:20.277Z,5.40
2018-12-27T06:41:48.550Z,5.40
2018-12-27T06:44:16.804Z,5.40
2018-12-27T06:46:45.076Z,5.40
2018-12-27T06:49:13.350Z,5.40
2018-12-27T06:51:42.799Z,5.40
2018-12-27T06:54:11.152Z,5.40
2018-12-27T06:56:39.411Z,5.40
2018-12-27T06:59:07.682Z,5.50
2018-12-27T07:01:35.961Z,5.50
2018-12-27T07:04:04.283Z,5.50
2018-12-27T07:06:32.557Z,5.50
2018-12-27T07:09:00.866Z,5.50
2018-12-27T07:11:29.542Z,5.50
2018-12-27T07:14:00.838Z,5.50
2018-12-27T07:16:29.100Z,5.50
2018-12-27T07:18:58.352Z,5.50
2018-12-27T07:21:26.776Z,5.50
2018-12-27T07:23:55.059Z,5.50
2018-12-27T07:26:23.329Z,5.60
2018-12-27T07:28:51.752Z,5.60
2018-12-27T07:31:20.981Z,5.60
2018-12-27T07:33:49.272Z,5.60
2018-12-27T07:36:17.642Z,5.60
2018-12-27T07:38:45.908Z,5.60
2018-12-27T07:41:14.190Z,5.60
2018-12-27T07:43:42.466Z,5.60
2018-12-27T07:46:11.129Z,5.60
2018-12-27T07:48:39.604Z,5.60
2018-12-27T07:51:07.885Z,5.60
2018-12-27T07:53:39.483Z,5.60
2018-12-27T07:56:07.754Z,5.60
2018-12-27T07:58:37.643Z,5.60
2018-12-27T08:01:05.995Z,5.60
2018-12-27T08:03:35.130Z,5.60
2018-12-27T08:06:03.399Z,5.60
2018-12-27T08:08:31.675Z,5.60
2018-12-27T08:10:59.945Z,5.60
2018-12-27T08:13:28.276Z,5.70
2018-12-27T08:15:56.643Z,5.70
2018-12-27T08:18:24.983Z,5.70
2018-12-27T08:20:53.489Z,5.70
2018-12-27T08:23:23.009Z,5.70
2018-12-27T08:25:51.530Z,5.70
2018-12-27T08:28:19.857Z,5.70
2018-12-27T08:30:48.281Z,5.70
2018-12-27T08:33:16.568Z,5.70
2018-12-27T08:35:46.866Z,5.70
2018-12-27T08:38:15.153Z,5.80
2018-12-27T08:40:43.675Z,5.80
2018-12-27T08:43:11.978Z,5.70
2018-12-27T08:45:40.405Z,5.80
2018-12-27T08:48:08.728Z,5.80
2018-12-27T08:50:37.954Z,5.80
2018-12-27T08:53:06.421Z,5.80
2018-12-27T08:55:34.929Z,5.80
2018-12-27T08:58:03.190Z,5.80
2018-12-27T09:00:31.451Z,5.80
2018-12-27T09:02:59.814Z,5.90
2018-12-27T09:05:28.447Z,5.90
2018-12-27T09:07:57.004Z,5.90
2018-12-27T09:10:25.324Z,6.00
2018-12-27T09:12:53.644Z,6.00
2018-12-27T09:15:21.939Z,6.00
2018-12-27T09:17:50.331Z,6.10
2018-12-27T09:20:18.866Z,6.10
2018-12-27T09:22:47.223Z,6.10
2018-12-27T09:25:15.541Z,6.10
2018-12-27T09:27:43.797Z,6.20
2018-12-27T09:30:12.074Z,6.30
2018-12-27T09:32:41.199Z,6.50
2018-12-27T09:35:09.883Z,6.60
2018-12-27T09:37:38.153Z,6.80
2018-12-27T09:40:06.843Z,7.00
2018-12-27T09:42:35.192Z,7.30
2018-12-27T09:45:04.288Z,7.70
2018-12-27T09:47:32.565Z,8.10
2018-12-27T09:50:00.869Z,8.50
2018-12-27T09:52:29.342Z,8.80
2018-12-27T09:54:57.744Z,9.00
2018-12-27T09:57:26.075Z,9.30
2018-12-27T09:59:54.362Z,9.60
2018-12-27T10:02:22.629Z,9.80
2018-12-27T10:04:56.654Z,10.00
2018-12-27T10:07:25.039Z,10.20
2018-12-27T10:09:53.441Z,10.40
2018-12-27T10:12:21.926Z,10.60
2018-12-27T10:14:51.460Z,10.80
2018-12-27T10:17:20.055Z,11.00
2018-12-27T10:19:50.268Z,11.30
2018-12-27T10:22:18.567Z,11.40
2018-12-27T10:24:46.856Z,11.40
2018-12-27T10:27:15.195Z,11.50
2018-12-27T10:29:43.470Z,11.50
2018-12-27T10:32:12.594Z,11.60
2018-12-27T10:34:40.899Z,11.50
2018-12-27T10:37:09.161Z,11.50
2018-12-27T10:39:38.551Z,11.40
2018-12-27T10:42:07.892Z,11.20
2018-12-27T10:44:49.522Z,10.90
2018-12-27T10:47:17.799Z,10.70
2018-12-27T10:49:46.187Z,10.50
2018-12-27T10:52:14.523Z,10.30
2018-12-27T10:54:42.936Z,10.10
2018-12-27T10:57:11.282Z,10.00
2018-12-27T10:59:39.670Z,9.80
2018-12-27T11:02:07.947Z,9.80
2018-12-27T11:04:36.301Z,9.70
2018-12-27T11:07:04.591Z,9.60
2018-12-27T11:09:32.880Z,9.40
2018-12-27T11:12:03.874Z,9.40
2018-12-27T11:14:32.240Z,9.30
2018-12-27T11:17:00.487Z,9.20
2018-12-27T11:19:28.751Z,9.10
2018-12-27T11:21:57.026Z,9.00
2018-12-27T11:24:25.347Z,8.80
2018-12-27T11:26:53.835Z,8.70
2018-12-27T11:29:22.253Z,8.60
2018-12-27T11:31:51.061Z,8.40
2018-12-27T11:34:20.653Z,8.30
2018-12-27T11:36:49.055Z,8.20
2018-12-27T11:39:17.315Z,8.20
2018-12-27T11:41:45.599Z,8.10
2018-12-27T11:44:13.859Z,8.00
2018-12-27T11:46:42.158Z,7.90
2018-12-27T11:49:10.433Z,7.90
2018-12-27T11:51:38.703Z,7.90
2018-12-27T11:54:06.982Z,7.90
2018-12-27T11:56:35.360Z,7.90
2018-12-27T11:59:03.637Z,7.90
2018-12-27T12:01:31.899Z,7.90
2018-12-27T12:04:00.372Z,7.90
2018-12-27T12:06:28.690Z,7.90
2018-12-27T12:08:57.019Z,7.90
2018-12-27T12:11:25.290Z,7.90
2018-12-27T12:13:53.568Z,7.90
2018-12-27T12:16:21.849Z,8.00
2018-12-27T12:18:50.229Z,8.00
2018-12-27T12:21:18.556Z,8.00
2018-12-27T12:23:46.873Z,8.00
2018-12-27T12:26:15.160Z,8.00
2018-12-27T12:28:43.463Z,7.90
2018-12-27T12:31:11.770Z,7.90
2018-12-27T12:33:40.104Z,7.90
2018-12-27T12:36:10.878Z,8.00
2018-12-27T12:38:38.422Z,8.00
2018-12-27T12:41:06.798Z,8.00
2018-12-27T12:43:35.129Z,8.00
2018-12-27T12:46:03.464Z,8.00
2018-12-27T12:48:31.778Z,8.00
2018-12-27T12:51:01.793Z,8.00
2018-12-27T12:53:30.058Z,8.00
2018-12-27T12:56:01.016Z,8.00
2018-12-27T12:58:29.312Z,7.90
2018-12-27T13:00:57.663Z,7.90
2018-12-27T13:03:25.927Z,7.90
2018-12-27T13:05:54.203Z,7.90
2018-12-27T13:08:22.478Z,7.90
2018-12-27T13:10:50.750Z,7.90
2018-12-27T13:13:19.013Z,7.90
2018-12-27T13:15:47.395Z,7.90
2018-12-27T13:18:15.705Z,7.90
2018-12-27T13:20:43.996Z,7.90
2018-12-27T13:23:12.912Z,7.90
2018-12-27T13:25:41.285Z,8.00
2018-12-27T13:28:12.527Z,8.00
2018-12-27T13:30:40.787Z,8.10
2018-12-27T13:33:09.061Z,8.10
2018-12-27T13:35:37.315Z,8.20
2018-12-27T13:38:05.684Z,8.20
2018-12-27T13:40:34.044Z,8.20
2018-12-27T13:43:02.447Z,8.30
2018-12-27T13:45:32.394Z,8.30
2018-12-27T13:48:00.790Z,8.30
2018-12-27T13:50:29.193Z,8.40
2018-12-27T13:52:57.607Z,8.40
2018-12-27T13:55:26.155Z,8.40
2018-12-27T13:57:56.609Z,8.40
2018-12-27T14:00:24.862Z,8.30
2018-12-27T14:02:55.476Z,8.30
2018-12-27T14:05:25.064Z,8.30
2018-12-27T14:07:54.179Z,8.30
2018-12-27T14:10:22.495Z,8.30
2018-12-27T14:12:50.842Z,8.30
2018-12-27T14:15:21.787Z,8.30
2018-12-27T14:17:50.323Z,8.30
2018-12-27T14:20:21.621Z,8.30
2018-12-27T14:22:53.122Z,8.30
2018-12-27T14:25:21.374Z,8.30
2018-12-27T14:27:49.706Z,8.30
2018-12-27T14:30:18.141Z,8.30
2018-12-27T14:32:46.589Z,8.20
2018-12-27T14:35:14.944Z,8.20
2018-12-27T14:37:43.253Z,8.20
2018-12-27T14:40:11.505Z,8.20
2018-12-27T14:42:39.820Z,8.20
2018-12-27T14:45:08.163Z,8.20
2018-12-27T14:47:36.472Z,8.10
2018-12-27T14:50:07.625Z,8.10
2018-12-27T14:52:41.691Z,8.10
2018-12-27T14:55:09.946Z,8.10
2018-12-27T14:57:38.334Z,8.00
2018-12-27T15:00:09.851Z,8.00
2018-12-27T15:02:38.156Z,8.10
2018-12-27T15:05:06.546Z,8.00
2018-12-27T15:07:34.818Z,8.00
2018-12-27T15:10:03.311Z,8.00
2018-12-27T15:12:31.649Z,8.00
2018-12-27T15:14:59.912Z,8.00
2018-12-27T15:17:28.347Z,8.00
2018-12-27T15:19:56.606Z,7.90
2018-12-27T15:22:24.976Z,7.90
2018-12-27T15:24:54.215Z,7.90
2018-12-27T15:27:22.574Z,7.90
2018-12-27T15:29:55.419Z,7.90
2018-12-27T15:32:24.671Z,7.90
2018-12-27T15:35:01.741Z,7.80
2018-12-27T15:37:30.000Z,7.80
2018-12-27T15:39:58.552Z,7.80
2018-12-27T15:42:26.858Z,7.80
2018-12-27T15:44:55.143Z,7.80
2018-12-27T15:47:23.899Z,7.80
2018-12-27T15:49:52.190Z,7.80
2018-12-27T15:52:20.829Z,7.80
2018-12-27T15:54:53.544Z,7.80
2018-12-27T15:57:21.906Z,7.70
2018-12-27T15:59:50.664Z,7.80
2018-12-27T16:02:18.942Z,7.70
2018-12-27T16:04:47.251Z,7.80
2018-12-27T16:07:15.581Z,7.80
2018-12-27T16:09:43.854Z,7.80
2018-12-27T16:12:12.991Z,7.80
2018-12-27T16:14:44.426Z,7.80
2018-12-27T16:17:11.291Z,7.80
2018-12-27T16:19:39.564Z,7.80
2018-12-27T16:22:09.003Z,7.80
2018-12-27T16:24:37.357Z,7.80
2018-12-27T16:27:05.887Z,7.80
2018-12-27T16:29:34.421Z,7.80
2018-12-27T16:32:02.725Z,7.80
2018-12-27T16:34:42.018Z,7.80
2018-12-27T16:37:10.790Z,7.80
2018-12-27T16:39:42.086Z,7.80
2018-12-27T16:42:10.356Z,7.90
2018-12-27T16:44:39.746Z,7.90
2018-12-27T16:47:08.038Z,7.90
2018-12-27T16:49:36.517Z,7.90
2018-12-27T17:16:47.566Z,7.80
2018-12-27T17:19:15.828Z,7.90
2018-12-27T17:21:44.124Z,7.80
2018-12-27T17:24:12.489Z,7.80
2018-12-27T17:26:40.740Z,7.90
2018-12-27T17:29:09.048Z,7.90
2018-12-27T17:31:37.278Z,7.90
2018-12-27T17:34:05.517Z,7.90
2018-12-27T17:36:33.738Z,7.90
2018-12-27T17:39:04.251Z,7.90
2018-12-27T17:41:32.486Z,7.90
2018-12-27T17:44:00.717Z,7.90
2018-12-27T17:46:28.947Z,7.90
2018-12-27T17:48:57.289Z,7.90
2018-12-27T17:51:25.680Z,7.90
2018-12-27T17:53:53.909Z,7.90
2018-12-27T17:56:22.166Z,7.90
2018-12-27T17:58:50.382Z,7.90
2018-12-27T18:01:18.647Z,7.90
2018-12-27T18:03:46.922Z,7.90
2018-12-27T18:06:15.287Z,7.80
2018-12-27T18:08:43.514Z,7.80
2018-12-27T18:11:11.809Z,7.80
2018-12-27T18:13:40.130Z,7.80
2018-12-27T18:16:09.068Z,7.80
2018-12-27T18:18:37.443Z,7.80
2018-12-27T18:21:05.702Z,7.80
2018-12-27T18:23:33.945Z,7.70
2018-12-27T18:26:02.199Z,7.70
2018-12-27T18:28:30.538Z,7.70
2018-12-27T18:30:58.858Z,7.70
2018-12-27T18:33:27.077Z,7.70
2018-12-27T18:35:55.324Z,7.70
2018-12-27T18:38:23.553Z,7.70
2018-12-27T18:40:51.824Z,7.60
2018-12-27T18:43:20.050Z,7.60
2018-12-27T18:45:48.356Z,7.50
2018-12-27T18:48:16.626Z,7.50
2018-12-27T18:50:44.890Z,7.50
2018-12-27T18:53:13.129Z,7.50
2018-12-27T18:55:41.588Z,7.40
2018-12-27T18:58:09.849Z,7.50
2018-12-27T19:00:38.100Z,7.40
2018-12-27T19:03:06.330Z,7.40
2018-12-27T19:05:34.570Z,7.40
2018-12-27T19:08:02.933Z,7.40
2018-12-27T19:10:31.187Z,7.40
2018-12-27T19:13:04.482Z,7.30
2018-12-27T19:15:44.828Z,7.30
2018-12-27T19:18:18.965Z,7.30
2018-12-27T19:20:51.013Z,7.30
2018-12-27T19:23:19.322Z,7.20
2018-12-27T19:25:47.541Z,7.20
2018-12-27T19:28:20.287Z,7.30
2018-12-27T19:30:48.515Z,7.20
2018-12-27T19:33:17.822Z,7.20
2018-12-27T19:35:47.641Z,7.20
2018-12-27T19:38:15.882Z,7.20
2018-12-27T19:40:44.090Z,7.20
2018-12-27T19:43:12.336Z,7.20
2018-12-27T19:45:40.562Z,7.20
2018-12-27T19:48:08.795Z,7.20
2018-12-27T19:50:37.105Z,7.10
2018-12-27T19:53:07.242Z,7.10
2018-12-27T19:55:35.473Z,7.10
2018-12-27T19:58:03.810Z,7.10
2018-12-27T20:00:32.037Z,7.10
2018-12-27T20:03:00.257Z,7.10
2018-12-27T20:05:28.580Z,7.10
2018-12-27T20:07:59.393Z,7.10
2018-12-27T20:10:26.778Z,7.10
2018-12-27T20:12:55.346Z,7.10
2018-12-27T20:15:23.643Z,7.10
2018-12-27T20:17:52.108Z,7.10
2018-12-27T20:20:20.372Z,7.10
2018-12-27T20:22:48.730Z,7.10
2018-12-27T20:25:17.034Z,7.10
2018-12-27T20:27:45.356Z,7.10
2018-12-27T20:30:13.677Z,7.00
2018-12-27T20:32:42.040Z,7.00
2018-12-27T20:35:10.345Z,7.00
2018-12-27T20:37:38.577Z,7.10
2018-12-27T20:40:07.093Z,7.10
2018-12-27T20:42:35.359Z,7.10
2018-12-27T20:45:03.670Z,7.00
2018-12-27T20:47:31.897Z,7.00
2018-12-27T20:50:00.171Z,7.00
2018-12-27T20:52:28.858Z,7.00
2018-12-27T20:54:57.261Z,7.10
2018-12-27T20:57:25.531Z,7.10
2018-12-27T20:59:53.799Z,7.10
2018-12-27T21:02:22.158Z,7.10
2018-12-27T21:04:50.384Z,7.10
2018-12-27T21:07:18.649Z,7.10
2018-12-27T21:09:46.961Z,7.10
2018-12-27T21:12:15.185Z,7.00
2018-12-27T21:14:43.445Z,7.00
2018-12-27T21:17:11.707Z,7.00
2018-12-27T21:19:39.974Z,7.00
2018-12-27T21:22:08.331Z,7.00
2018-12-27T21:24:36.647Z,7.00
2018-12-27T21:27:05.055Z,7.00
2018-12-27T21:29:33.389Z,7.00
2018-12-27T21:32:01.621Z,7.00
2018-12-27T21:34:29.918Z,6.90
2018-12-27T21:36:58.218Z,6.90
2018-12-27T21:39:26.476Z,6.90
2018-12-27T21:42:00.068Z,6.90
2018-12-27T21:44:28.502Z,6.80
2018-12-27T21:46:56.851Z,6.80
2018-12-27T21:49:25.136Z,6.70
2018-12-27T21:51:53.520Z,6.70
2018-12-27T21:54:21.782Z,6.70
2018-12-27T21:56:50.047Z,6.70
2018-12-27T21:59:18.522Z,6.70
2018-12-27T22:01:46.752Z,6.60
2018-12-27T22:04:14.988Z,6.60
2018-12-27T22:06:43.250Z,6.60
2018-12-27T22:09:11.476Z,6.60
2018-12-27T22:11:39.729Z,6.60
2018-12-27T22:14:07.973Z,6.50
2018-12-27T22:16:36.209Z,6.50
2018-12-27T22:19:04.454Z,6.50
2018-12-27T22:21:32.692Z,6.50
2018-12-27T22:24:00.933Z,6.40
2018-12-27T22:26:29.173Z,6.40
2018-12-27T22:28:57.405Z,6.40
2018-12-27T22:31:25.659Z,6.40
2018-12-27T22:33:53.937Z,6.40
2018-12-27T22:36:22.212Z,6.30
2018-12-27T22:38:50.518Z,6.30
2018-12-27T22:41:18.754Z,6.30
2018-12-27T22:43:47.036Z,6.30
2018-12-27T22:46:15.309Z,6.30
2018-12-27T22:48:43.541Z,6.30
2018-12-27T22:51:11.779Z,6.30
2018-12-27T22:53:40.025Z,6.20
2018-12-27T22:56:08.259Z,6.20
2018-12-27T22:58:36.493Z,6.20
2018-12-27T23:01:04.790Z,6.20
2018-12-27T23:03:33.024Z,6.20
2018-12-27T23:06:01.330Z,6.10
2018-12-27T23:08:29.570Z,6.10
2018-12-27T23:10:57.789Z,6.10
2018-12-27T23:13:26.034Z,6.00
2018-12-27T23:15:54.264Z,5.90
2018-12-27T23:18:22.554Z,5.90
2018-12-27T23:20:50.773Z,5.90
2018-12-27T23:23:19.043Z,5.80
2018-12-27T23:25:47.336Z,5.70
2018-12-27T23:28:15.581Z,5.70
2018-12-27T23:30:43.794Z,5.70
2018-12-27T23:33:12.059Z,5.70
2018-12-27T23:35:40.282Z,5.70
2018-12-27T23:38:08.516Z,5.60
2018-12-27T23:40:36.766Z,5.60
2018-12-27T23:43:05.053Z,5.60
2018-12-27T23:45:33.290Z,5.60
2018-12-27T23:48:01.510Z,5.60
2018-12-27T23:50:29.768Z,5.50
2018-12-27T23:52:57.997Z,5.50
2018-12-27T23:55:26.256Z,5.50
2018-12-27T23:57:54.490Z,5.50
